sensor_id;sensor_type;location;lat;lon;timestamp;P1;durP1;ratioP1;P2;durP2;ratioP2
22441;SDS011;11388;54.456;9.752;2023-04-03T04:58:47;5.82;;;3.00;;
22441;SDS011;11388;54.456;9.752;2023-04-03T05:01:16;6.78;;;3.22;;
22441;SDS011;11388;54.456;9.752;2023-04-03T05:03:43;5.85;;;3.15;;
22441;SDS011;11388;54.456;9.752;2023-04-03T05:06:15;6.97;;;2.92;;
22441;SDS011;11388;54.456;9.752;2023-04-03T05:08:41;9.00;;;3.00;;
22441;SDS011;11388;54.456;9.752;2023-04-03T05:11:10;7.60;;;2.70;;
22441;SDS011;11388;54.456;9.752;2023-04-03T05:13:39;5.10;;;2.47;;
22441;SDS011;11388;54.456;9.752;2023-04-03T05:16:04;4.82;;;2.60;;
22441;SDS011;11388;54.456;9.752;2023-04-03T05:18:30;5.85;;;2.80;;
22441;SDS011;11388;54.456;9.752;2023-04-03T05:20:56;3.97;;;2.53;;
22441;SDS011;11388;54.456;9.752;2023-04-03T05:23:23;5.90;;;2.80;;
22441;SDS011;11388;54.456;9.752;2023-04-03T05:25:49;5.78;;;2.60;;
22441;SDS011;11388;54.456;9.752;2023-04-03T05:28:15;6.35;;;2.83;;
22441;SDS011;11388;54.456;9.752;2023-04-03T05:30:43;5.30;;;2.88;;
22441;SDS011;11388;54.456;9.752;2023-04-03T05:33:23;6.40;;;2.78;;
22441;SDS011;11388;54.456;9.752;2023-04-03T05:35:52;5.90;;;2.92;;
22441;SDS011;11388;54.456;9.752;2023-04-03T05:38:19;9.20;;;3.13;;
22441;SDS011;11388;54.456;9.752;2023-04-03T05:40:45;9.00;;;3.13;;
22441;SDS011;11388;54.456;9.752;2023-04-03T05:43:10;7.25;;;2.72;;
22441;SDS011;11388;54.456;9.752;2023-04-03T05:45:36;6.30;;;3.03;;
22441;SDS011;11388;54.456;9.752;2023-04-03T05:48:02;5.43;;;3.08;;
22441;SDS011;11388;54.456;9.752;2023-04-03T05:50:30;7.60;;;3.30;;
22441;SDS011;11388;54.456;9.752;2023-04-03T05:52:57;7.00;;;3.53;;
22441;SDS011;11388;54.456;9.752;2023-04-03T05:55:23;7.03;;;2.90;;
22441;SDS011;11388;54.456;9.752;2023-04-03T05:57:49;5.90;;;2.88;;
22441;SDS011;11388;54.456;9.752;2023-04-03T06:00:18;6.70;;;3.10;;
22441;SDS011;11388;54.456;9.752;2023-04-03T06:02:49;6.10;;;2.72;;
22441;SDS011;11388;54.456;9.752;2023-04-03T06:05:15;7.32;;;2.97;;
22441;SDS011;11388;54.456;9.752;2023-04-03T06:07:41;4.80;;;2.85;;
22441;SDS011;11388;54.456;9.752;2023-04-03T06:10:07;5.75;;;2.75;;
22441;SDS011;11388;54.456;9.752;2023-04-03T06:12:33;5.95;;;3.05;;
22441;SDS011;11388;54.456;9.752;2023-04-03T06:14:59;7.40;;;3.88;;
22441;SDS011;11388;54.456;9.752;2023-04-03T06:17:26;8.85;;;3.88;;
22441;SDS011;11388;54.456;9.752;2023-04-03T06:19:52;6.00;;;3.67;;
22441;SDS011;11388;54.456;9.752;2023-04-03T06:22:17;6.70;;;3.30;;
22441;SDS011;11388;54.456;9.752;2023-04-03T06:24:43;8.05;;;3.47;;
22441;SDS011;11388;54.456;9.752;2023-04-03T06:27:09;7.90;;;3.10;;
22441;SDS011;11388;54.456;9.752;2023-04-03T06:29:36;5.72;;;3.25;;
22441;SDS011;11388;54.456;9.752;2023-04-03T06:32:02;7.85;;;3.33;;
22441;SDS011;11388;54.456;9.752;2023-04-03T06:34:27;7.18;;;3.05;;
22441;SDS011;11388;54.456;9.752;2023-04-03T06:36:53;5.32;;;3.70;;
22441;SDS011;11388;54.456;9.752;2023-04-03T06:39:20;5.82;;;3.60;;
22441;SDS011;11388;54.456;9.752;2023-04-03T06:41:55;5.53;;;3.50;;
22441;SDS011;11388;54.456;9.752;2023-04-03T06:44:39;5.65;;;3.50;;
22441;SDS011;11388;54.456;9.752;2023-04-03T06:47:15;5.95;;;3.40;;
22441;SDS011;11388;54.456;9.752;2023-04-03T06:52:48;7.65;;;3.90;;
22441;SDS011;11388;54.456;9.752;2023-04-03T06:55:45;8.45;;;4.05;;
22441;SDS011;11388;54.456;9.752;2023-04-03T06:58:14;5.95;;;3.67;;
22441;SDS011;11388;54.456;9.752;2023-04-03T07:00:45;7.75;;;4.07;;
22441;SDS011;11388;54.456;9.752;2023-04-03T07:03:22;7.60;;;3.90;;
22441;SDS011;11388;54.456;9.752;2023-04-03T07:06:01;5.47;;;3.47;;
22441;SDS011;11388;54.456;9.752;2023-04-03T07:08:32;5.93;;;3.92;;
22441;SDS011;11388;54.456;9.752;2023-04-03T07:24:17;6.63;;;3.65;;
22441;SDS011;11388;54.456;9.752;2023-04-03T07:26:43;7.80;;;4.03;;
22441;SDS011;11388;54.456;9.752;2023-04-03T07:29:10;5.40;;;3.65;;
22441;SDS011;11388;54.456;9.752;2023-04-03T07:31:35;5.75;;;3.55;;
22441;SDS011;11388;54.456;9.752;2023-04-03T07:34:02;6.53;;;3.67;;
22441;SDS011;11388;54.456;9.752;2023-04-03T07:36:28;5.03;;;3.33;;
22441;SDS011;11388;54.456;9.752;2023-04-03T07:38:54;6.88;;;3.78;;
22441;SDS011;11388;54.456;9.752;2023-04-03T07:41:21;7.07;;;3.65;;
22441;SDS011;11388;54.456;9.752;2023-04-03T07:43:50;5.80;;;3.50;;
22441;SDS011;11388;54.456;9.752;2023-04-03T07:46:17;6.03;;;3.80;;
22441;SDS011;11388;54.456;9.752;2023-04-03T07:48:43;6.32;;;3.80;;
22441;SDS011;11388;54.456;9.752;2023-04-03T07:51:10;7.05;;;3.80;;
22441;SDS011;11388;54.456;9.752;2023-04-03T07:56:26;7.07;;;4.15;;
22441;SDS011;11388;54.456;9.752;2023-04-03T07:58:52;7.55;;;4.35;;
22441;SDS011;11388;54.456;9.752;2023-04-03T08:01:23;8.23;;;4.35;;
22441;SDS011;11388;54.456;9.752;2023-04-03T08:03:48;6.15;;;3.67;;
22441;SDS011;11388;54.456;9.752;2023-04-03T09:11:04;4.28;;;2.00;;
22441;SDS011;11388;54.456;9.752;2023-04-03T09:31:59;3.75;;;2.13;;
22441;SDS011;11388;54.456;9.752;2023-04-03T09:34:27;4.93;;;1.95;;
22441;SDS011;11388;54.456;9.752;2023-04-03T09:36:57;3.63;;;1.80;;
22441;SDS011;11388;54.456;9.752;2023-04-03T13:15:48;2.83;;;0.90;;
22441;SDS011;11388;54.456;9.752;2023-04-03T13:18:30;2.58;;;0.65;;
22441;SDS011;11388;54.456;9.752;2023-04-03T13:21:01;2.38;;;0.90;;
22441;SDS011;11388;54.456;9.752;2023-04-03T13:23:33;1.88;;;0.77;;
22441;SDS011;11388;54.456;9.752;2023-04-03T13:26:01;2.45;;;0.80;;
22441;SDS011;11388;54.456;9.752;2023-04-03T13:28:31;2.38;;;1.10;;
22441;SDS011;11388;54.456;9.752;2023-04-03T14:15:22;2.28;;;0.82;;
22441;SDS011;11388;54.456;9.752;2023-04-03T14:18:22;3.65;;;0.90;;
22441;SDS011;11388;54.456;9.752;2023-04-03T14:21:39;2.75;;;0.80;;
22441;SDS011;11388;54.456;9.752;2023-04-03T14:27:47;2.30;;;0.80;;
22441;SDS011;11388;54.456;9.752;2023-04-03T14:30:44;3.10;;;0.93;;
22441;SDS011;11388;54.456;9.752;2023-04-03T14:33:21;3.38;;;0.90;;
22441;SDS011;11388;54.456;9.752;2023-04-03T14:35:48;2.85;;;0.80;;
22441;SDS011;11388;54.456;9.752;2023-04-03T14:38:26;1.75;;;0.88;;
22441;SDS011;11388;54.456;9.752;2023-04-03T14:40:54;2.60;;;0.80;;
22441;SDS011;11388;54.456;9.752;2023-04-03T14:43:21;2.83;;;0.90;;
22441;SDS011;11388;54.456;9.752;2023-04-03T14:45:47;3.47;;;0.95;;
22441;SDS011;11388;54.456;9.752;2023-04-03T14:48:21;2.65;;;0.88;;
22441;SDS011;11388;54.456;9.752;2023-04-03T14:50:49;2.95;;;0.70;;
22441;SDS011;11388;54.456;9.752;2023-04-03T14:53:16;1.98;;;0.52;;
22441;SDS011;11388;54.456;9.752;2023-04-03T14:55:46;5.32;;;0.80;;
22441;SDS011;11388;54.456;9.752;2023-04-03T14:58:17;2.85;;;0.80;;
22441;SDS011;11388;54.456;9.752;2023-04-03T15:00:45;2.40;;;0.70;;
22441;SDS011;11388;54.456;9.752;2023-04-03T15:03:19;3.17;;;0.95;;
22441;SDS011;11388;54.456;9.752;2023-04-03T15:06:04;2.38;;;1.00;;
22441;SDS011;11388;54.456;9.752;2023-04-03T15:08:33;2.40;;;0.80;;
22441;SDS011;11388;54.456;9.752;2023-04-03T15:11:02;3.03;;;0.88;;
22441;SDS011;11388;54.456;9.752;2023-04-03T15:13:28;3.08;;;1.08;;
22441;SDS011;11388;54.456;9.752;2023-04-03T15:23:08;3.92;;;0.90;;
22441;SDS011;11388;54.456;9.752;2023-04-03T15:25:40;3.58;;;1.15;;
22441;SDS011;11388;54.456;9.752;2023-04-03T15:28:13;3.05;;;0.90;;
22441;SDS011;11388;54.456;9.752;2023-04-03T15:31:16;3.63;;;0.90;;
22441;SDS011;11388;54.456;9.752;2023-04-03T15:33:59;3.90;;;1.25;;
22441;SDS011;11388;54.456;9.752;2023-04-03T15:36:47;2.63;;;1.00;;
22441;SDS011;11388;54.456;9.752;2023-04-03T15:39:24;3.28;;;1.10;;
22441;SDS011;11388;54.456;9.752;2023-04-03T15:41:51;3.72;;;1.10;;
22441;SDS011;11388;54.456;9.752;2023-04-03T15:44:30;3.28;;;1.20;;
22441;SDS011;11388;54.456;9.752;2023-04-03T15:47:02;2.33;;;0.90;;
22441;SDS011;11388;54.456;9.752;2023-04-03T15:49:32;3.47;;;1.00;;
22441;SDS011;11388;54.456;9.752;2023-04-03T15:55:39;3.78;;;0.93;;
22441;SDS011;11388;54.456;9.752;2023-04-03T15:58:33;3.97;;;1.08;;
22441;SDS011;11388;54.456;9.752;2023-04-03T16:01:37;4.25;;;1.10;;
22441;SDS011;11388;54.456;9.752;2023-04-03T16:04:39;1.80;;;0.85;;
22441;SDS011;11388;54.456;9.752;2023-04-03T16:07:46;2.42;;;0.88;;
22441;SDS011;11388;54.456;9.752;2023-04-03T16:10:52;4.30;;;1.05;;
22441;SDS011;11388;54.456;9.752;2023-04-03T16:17:12;3.10;;;1.00;;
22441;SDS011;11388;54.456;9.752;2023-04-03T16:19:41;3.30;;;1.10;;
22441;SDS011;11388;54.456;9.752;2023-04-03T16:22:07;2.97;;;1.00;;
22441;SDS011;11388;54.456;9.752;2023-04-03T16:24:32;2.67;;;0.90;;
22441;SDS011;11388;54.456;9.752;2023-04-03T16:26:58;3.80;;;1.13;;
22441;SDS011;11388;54.456;9.752;2023-04-03T16:29:24;4.13;;;1.08;;
22441;SDS011;11388;54.456;9.752;2023-04-03T16:31:50;3.50;;;1.00;;
22441;SDS011;11388;54.456;9.752;2023-04-03T16:34:16;3.38;;;1.10;;
22441;SDS011;11388;54.456;9.752;2023-04-03T16:36:42;3.10;;;1.00;;
22441;SDS011;11388;54.456;9.752;2023-04-03T16:39:08;4.03;;;1.17;;
22441;SDS011;11388;54.456;9.752;2023-04-03T16:41:35;3.58;;;1.13;;
22441;SDS011;11388;54.456;9.752;2023-04-03T16:44:00;3.72;;;1.20;;
22441;SDS011;11388;54.456;9.752;2023-04-03T16:46:27;3.58;;;1.20;;
22441;SDS011;11388;54.456;9.752;2023-04-03T16:48:53;2.50;;;1.08;;
22441;SDS011;11388;54.456;9.752;2023-04-03T16:51:18;4.07;;;1.33;;
22441;SDS011;11388;54.456;9.752;2023-04-03T16:53:44;5.20;;;1.40;;
22441;SDS011;11388;54.456;9.752;2023-04-03T16:56:10;4.25;;;1.08;;
22441;SDS011;11388;54.456;9.752;2023-04-03T16:58:36;3.50;;;1.20;;
22441;SDS011;11388;54.456;9.752;2023-04-03T17:01:09;5.07;;;1.30;;
22441;SDS011;11388;54.456;9.752;2023-04-03T17:06:08;4.40;;;1.73;;
22441;SDS011;11388;54.456;9.752;2023-04-03T17:08:41;3.85;;;1.40;;
22441;SDS011;11388;54.456;9.752;2023-04-03T17:11:11;4.75;;;1.30;;
22441;SDS011;11388;54.456;9.752;2023-04-03T17:13:37;2.03;;;0.85;;
22441;SDS011;11388;54.456;9.752;2023-04-03T17:16:03;3.85;;;1.15;;
22441;SDS011;11388;54.456;9.752;2023-04-03T17:18:32;2.53;;;1.05;;
22441;SDS011;11388;54.456;9.752;2023-04-03T17:21:02;3.42;;;1.20;;
22441;SDS011;11388;54.456;9.752;2023-04-03T17:23:29;2.50;;;1.17;;
22441;SDS011;11388;54.456;9.752;2023-04-03T17:25:55;3.97;;;1.60;;
22441;SDS011;11388;54.456;9.752;2023-04-03T17:28:21;3.55;;;1.35;;
22441;SDS011;11388;54.456;9.752;2023-04-03T17:31:01;3.90;;;1.60;;
22441;SDS011;11388;54.456;9.752;2023-04-03T17:33:29;3.67;;;1.50;;
22441;SDS011;11388;54.456;9.752;2023-04-03T17:36:01;4.75;;;2.03;;
22441;SDS011;11388;54.456;9.752;2023-04-03T17:38:29;3.45;;;1.35;;
22441;SDS011;11388;54.456;9.752;2023-04-03T17:40:59;3.25;;;1.40;;
22441;SDS011;11388;54.456;9.752;2023-04-03T17:43:27;2.10;;;0.90;;
22441;SDS011;11388;54.456;9.752;2023-04-03T17:45:53;3.10;;;0.90;;
22441;SDS011;11388;54.456;9.752;2023-04-03T17:48:28;4.63;;;1.13;;
22441;SDS011;11388;54.456;9.752;2023-04-03T17:50:57;3.58;;;0.93;;
22441;SDS011;11388;54.456;9.752;2023-04-03T17:53:23;4.93;;;1.10;;
22441;SDS011;11388;54.456;9.752;2023-04-03T17:55:51;4.47;;;1.00;;
22441;SDS011;11388;54.456;9.752;2023-04-03T17:58:17;3.25;;;1.08;;
22441;SDS011;11388;54.456;9.752;2023-04-03T18:00:43;3.67;;;1.10;;
22441;SDS011;11388;54.456;9.752;2023-04-03T18:03:09;2.67;;;1.23;;
22441;SDS011;11388;54.456;9.752;2023-04-03T18:05:36;4.00;;;1.70;;
22441;SDS011;11388;54.456;9.752;2023-04-03T18:08:02;2.80;;;1.48;;
22441;SDS011;11388;54.456;9.752;2023-04-03T18:10:28;3.67;;;1.40;;
22441;SDS011;11388;54.456;9.752;2023-04-03T18:12:54;4.28;;;1.10;;
22441;SDS011;11388;54.456;9.752;2023-04-03T18:15:20;1.88;;;0.95;;
22441;SDS011;11388;54.456;9.752;2023-04-03T18:17:50;3.65;;;1.20;;
22441;SDS011;11388;54.456;9.752;2023-04-03T18:20:20;3.75;;;1.38;;
22441;SDS011;11388;54.456;9.752;2023-04-03T18:25:36;3.88;;;1.20;;
22441;SDS011;11388;54.456;9.752;2023-04-03T18:28:03;4.93;;;1.35;;
22441;SDS011;11388;54.456;9.752;2023-04-03T18:30:31;3.15;;;1.10;;
22441;SDS011;11388;54.456;9.752;2023-04-03T18:33:00;2.92;;;1.10;;
22441;SDS011;11388;54.456;9.752;2023-04-03T18:35:26;3.90;;;1.00;;
22441;SDS011;11388;54.456;9.752;2023-04-03T18:37:52;3.33;;;0.90;;
22441;SDS011;11388;54.456;9.752;2023-04-03T18:40:18;2.20;;;0.82;;
22441;SDS011;11388;54.456;9.752;2023-04-03T18:42:43;4.38;;;0.90;;
22441;SDS011;11388;54.456;9.752;2023-04-03T18:45:09;5.10;;;1.08;;
22441;SDS011;11388;54.456;9.752;2023-04-03T18:47:37;3.60;;;1.00;;
22441;SDS011;11388;54.456;9.752;2023-04-03T18:50:04;2.72;;;0.93;;
22441;SDS011;11388;54.456;9.752;2023-04-03T18:52:30;3.90;;;1.05;;
22441;SDS011;11388;54.456;9.752;2023-04-03T18:54:57;3.08;;;0.95;;
22441;SDS011;11388;54.456;9.752;2023-04-03T18:57:22;2.67;;;1.20;;
22441;SDS011;11388;54.456;9.752;2023-04-03T18:59:50;2.72;;;1.00;;
22441;SDS011;11388;54.456;9.752;2023-04-03T19:02:17;2.75;;;0.88;;
22441;SDS011;11388;54.456;9.752;2023-04-03T19:04:46;2.72;;;1.00;;
22441;SDS011;11388;54.456;9.752;2023-04-03T19:07:12;2.78;;;1.08;;
22441;SDS011;11388;54.456;9.752;2023-04-03T19:09:38;7.68;;;1.42;;
22441;SDS011;11388;54.456;9.752;2023-04-03T19:12:05;5.40;;;1.15;;
22441;SDS011;11388;54.456;9.752;2023-04-03T19:14:31;2.53;;;1.00;;
22441;SDS011;11388;54.456;9.752;2023-04-03T19:16:59;2.80;;;1.30;;
22441;SDS011;11388;54.456;9.752;2023-04-03T19:19:27;4.20;;;1.20;;
22441;SDS011;11388;54.456;9.752;2023-04-03T19:21:52;5.93;;;1.45;;
22441;SDS011;11388;54.456;9.752;2023-04-03T19:24:19;2.40;;;1.17;;
22441;SDS011;11388;54.456;9.752;2023-04-03T19:26:45;4.20;;;1.33;;
22441;SDS011;11388;54.456;9.752;2023-04-03T19:29:11;2.58;;;1.05;;
22441;SDS011;11388;54.456;9.752;2023-04-03T19:31:37;4.90;;;1.50;;
22441;SDS011;11388;54.456;9.752;2023-04-03T19:34:04;3.03;;;1.20;;
22441;SDS011;11388;54.456;9.752;2023-04-03T19:36:31;3.92;;;1.38;;
22441;SDS011;11388;54.456;9.752;2023-04-03T19:38:58;4.32;;;1.42;;
22441;SDS011;11388;54.456;9.752;2023-04-03T19:41:24;3.53;;;1.50;;
22441;SDS011;11388;54.456;9.752;2023-04-03T19:43:53;4.15;;;1.20;;
22441;SDS011;11388;54.456;9.752;2023-04-03T19:46:24;2.22;;;1.08;;
22441;SDS011;11388;54.456;9.752;2023-04-03T19:48:51;3.90;;;1.25;;
22441;SDS011;11388;54.456;9.752;2023-04-03T19:51:18;4.32;;;2.38;;
22441;SDS011;11388;54.456;9.752;2023-04-03T19:57:05;3.08;;;1.25;;
22441;SDS011;11388;54.456;9.752;2023-04-03T19:59:32;3.78;;;1.30;;
22441;SDS011;11388;54.456;9.752;2023-04-03T20:01:58;3.78;;;1.80;;
22441;SDS011;11388;54.456;9.752;2023-04-03T20:04:30;3.42;;;1.60;;
22441;SDS011;11388;54.456;9.752;2023-04-03T20:06:55;5.32;;;1.55;;
22441;SDS011;11388;54.456;9.752;2023-04-03T20:09:21;4.30;;;1.45;;
22441;SDS011;11388;54.456;9.752;2023-04-03T20:11:47;5.65;;;3.70;;
22441;SDS011;11388;54.456;9.752;2023-04-03T20:14:13;6.30;;;3.85;;
22441;SDS011;11388;54.456;9.752;2023-04-03T20:16:40;7.03;;;3.38;;
22441;SDS011;11388;54.456;9.752;2023-04-03T20:19:06;5.22;;;2.60;;
22441;SDS011;11388;54.456;9.752;2023-04-03T20:21:33;6.95;;;3.70;;
22441;SDS011;11388;54.456;9.752;2023-04-03T20:23:59;6.47;;;3.78;;
22441;SDS011;11388;54.456;9.752;2023-04-03T20:26:27;11.55;;;5.70;;
22441;SDS011;11388;54.456;9.752;2023-04-03T20:28:56;8.18;;;4.38;;
22441;SDS011;11388;54.456;9.752;2023-04-03T20:31:23;8.00;;;3.90;;
22441;SDS011;11388;54.456;9.752;2023-04-03T20:33:50;9.35;;;5.45;;
22441;SDS011;11388;54.456;9.752;2023-04-03T20:36:16;8.88;;;5.25;;
22441;SDS011;11388;54.456;9.752;2023-04-03T20:38:47;9.23;;;6.75;;
22441;SDS011;11388;54.456;9.752;2023-04-03T20:41:14;7.82;;;5.18;;
22441;SDS011;11388;54.456;9.752;2023-04-03T20:43:40;10.20;;;5.13;;
22441;SDS011;11388;54.456;9.752;2023-04-03T20:46:08;10.93;;;6.65;;
22441;SDS011;11388;54.456;9.752;2023-04-03T20:48:35;9.65;;;5.72;;
22441;SDS011;11388;54.456;9.752;2023-04-03T20:51:11;9.00;;;5.75;;
22441;SDS011;11388;54.456;9.752;2023-04-03T20:53:41;7.13;;;4.28;;
22441;SDS011;11388;54.456;9.752;2023-04-03T20:56:08;7.15;;;3.67;;
22441;SDS011;11388;54.456;9.752;2023-04-03T20:58:34;6.75;;;4.32;;
22441;SDS011;11388;54.456;9.752;2023-04-03T21:01:02;7.25;;;4.47;;
22441;SDS011;11388;54.456;9.752;2023-04-03T21:03:37;6.57;;;3.70;;
22441;SDS011;11388;54.456;9.752;2023-04-03T21:21:01;7.30;;;3.10;;
22441;SDS011;11388;54.456;9.752;2023-04-03T21:23:28;6.28;;;3.20;;
22441;SDS011;11388;54.456;9.752;2023-04-03T21:25:55;5.78;;;3.65;;
22441;SDS011;11388;54.456;9.752;2023-04-03T21:28:23;8.48;;;3.58;;
22441;SDS011;11388;54.456;9.752;2023-04-03T21:30:49;5.82;;;3.67;;
22441;SDS011;11388;54.456;9.752;2023-04-03T21:33:18;6.00;;;3.20;;
22441;SDS011;11388;54.456;9.752;2023-04-03T21:35:43;5.80;;;3.47;;
22441;SDS011;11388;54.456;9.752;2023-04-03T21:38:10;6.17;;;3.40;;
22441;SDS011;11388;54.456;9.752;2023-04-03T21:40:35;9.68;;;6.30;;
22441;SDS011;11388;54.456;9.752;2023-04-03T21:43:01;11.85;;;7.60;;
22441;SDS011;11388;54.456;9.752;2023-04-03T21:45:29;10.07;;;6.40;;
22441;SDS011;11388;54.456;9.752;2023-04-03T21:47:54;9.98;;;6.38;;
22441;SDS011;11388;54.456;9.752;2023-04-03T21:50:20;9.93;;;6.38;;
22441;SDS011;11388;54.456;9.752;2023-04-03T21:52:45;8.70;;;5.53;;
22441;SDS011;11388;54.456;9.752;2023-04-03T21:55:11;8.43;;;4.85;;
22441;SDS011;11388;54.456;9.752;2023-04-03T21:57:39;7.47;;;4.72;;
22441;SDS011;11388;54.456;9.752;2023-04-03T22:00:05;7.80;;;4.40;;
22441;SDS011;11388;54.456;9.752;2023-04-03T22:02:37;6.60;;;4.00;;
22441;SDS011;11388;54.456;9.752;2023-04-03T22:05:03;5.93;;;3.80;;
22441;SDS011;11388;54.456;9.752;2023-04-03T22:07:29;6.90;;;3.55;;
22441;SDS011;11388;54.456;9.752;2023-04-03T22:09:55;7.75;;;3.38;;
22441;SDS011;11388;54.456;9.752;2023-04-03T22:12:35;7.10;;;5.70;;
22441;SDS011;11388;54.456;9.752;2023-04-03T22:15:01;8.68;;;5.10;;
22441;SDS011;11388;54.456;9.752;2023-04-03T22:17:30;7.55;;;4.57;;
22441;SDS011;11388;54.456;9.752;2023-04-03T22:19:55;6.32;;;3.95;;
22441;SDS011;11388;54.456;9.752;2023-04-03T22:22:21;7.40;;;3.47;;
22441;SDS011;11388;54.456;9.752;2023-04-03T22:24:48;6.88;;;3.50;;
22441;SDS011;11388;54.456;9.752;2023-04-03T22:27:14;6.50;;;3.30;;
22441;SDS011;11388;54.456;9.752;2023-04-03T22:29:40;5.85;;;3.30;;
22441;SDS011;11388;54.456;9.752;2023-04-03T22:32:06;4.80;;;3.22;;
22441;SDS011;11388;54.456;9.752;2023-04-03T22:34:32;5.68;;;3.03;;
22441;SDS011;11388;54.456;9.752;2023-04-03T22:36:59;6.47;;;2.70;;
22441;SDS011;11388;54.456;9.752;2023-04-03T22:39:25;5.03;;;2.78;;
22441;SDS011;11388;54.456;9.752;2023-04-03T22:41:50;5.93;;;2.50;;
22441;SDS011;11388;54.456;9.752;2023-04-03T22:44:16;4.97;;;2.97;;
22441;SDS011;11388;54.456;9.752;2023-04-03T22:46:42;7.97;;;2.80;;
22441;SDS011;11388;54.456;9.752;2023-04-03T22:49:08;4.88;;;2.75;;
22441;SDS011;11388;54.456;9.752;2023-04-03T22:51:33;6.00;;;2.40;;
22441;SDS011;11388;54.456;9.752;2023-04-03T22:53:59;5.15;;;2.60;;
22441;SDS011;11388;54.456;9.752;2023-04-03T22:56:24;5.40;;;2.70;;
22441;SDS011;11388;54.456;9.752;2023-04-03T22:58:50;8.18;;;2.65;;
22441;SDS011;11388;54.456;9.752;2023-04-03T23:01:16;6.20;;;2.25;;
22441;SDS011;11388;54.456;9.752;2023-04-03T23:06:47;5.60;;;2.53;;
22441;SDS011;11388;54.456;9.752;2023-04-03T23:09:13;6.35;;;2.58;;
22441;SDS011;11388;54.456;9.752;2023-04-03T23:11:39;6.00;;;2.47;;
22441;SDS011;11388;54.456;9.752;2023-04-03T23:14:04;4.70;;;2.50;;
22441;SDS011;11388;54.456;9.752;2023-04-03T23:16:30;4.13;;;2.60;;
22441;SDS011;11388;54.456;9.752;2023-04-03T23:18:56;6.13;;;2.75;;
22441;SDS011;11388;54.456;9.752;2023-04-03T23:21:22;6.10;;;2.55;;
22441;SDS011;11388;54.456;9.752;2023-04-03T23:23:48;6.10;;;2.72;;
22441;SDS011;11388;54.456;9.752;2023-04-03T23:26:13;5.07;;;2.47;;
22441;SDS011;11388;54.456;9.752;2023-04-03T23:28:39;5.30;;;2.60;;
22441;SDS011;11388;54.456;9.752;2023-04-03T23:31:06;4.05;;;2.30;;
22441;SDS011;11388;54.456;9.752;2023-04-03T23:33:35;5.03;;;2.38;;
22441;SDS011;11388;54.456;9.752;2023-04-03T23:36:06;6.20;;;2.80;;
22441;SDS011;11388;54.456;9.752;2023-04-03T23:38:32;5.78;;;2.72;;
22441;SDS011;11388;54.456;9.752;2023-04-03T23:40:59;6.60;;;2.55;;
22441;SDS011;11388;54.456;9.752;2023-04-03T23:43:25;5.40;;;2.60;;
22441;SDS011;11388;54.456;9.752;2023-04-03T23:45:54;4.88;;;2.60;;
22441;SDS011;11388;54.456;9.752;2023-04-03T23:48:40;4.93;;;2.50;;
22441;SDS011;11388;54.456;9.752;2023-04-03T23:51:09;5.30;;;2.58;;
22441;SDS011;11388;54.456;9.752;2023-04-03T23:53:35;7.57;;;2.65;;
22441;SDS011;11388;54.456;9.752;2023-04-03T23:56:03;7.22;;;2.78;;
22441;SDS011;11388;54.456;9.752;2023-04-03T23:58:33;4.72;;;2.60;;
